createdAt,value
2022-08-26T00:00:21.586Z,13.18
2022-08-26T00:05:25.960Z,11.52
2022-08-26T00:10:29.653Z,10.73
2022-08-26T00:15:32.901Z,9.43
2022-08-26T00:20:36.291Z,14.98
2022-08-26T00:25:42.565Z,10.18
2022-08-26T00:30:48.916Z,15.25
2022-08-26T00:35:54.761Z,14.00
2022-08-26T00:40:58.748Z,11.52
2022-08-26T00:46:13.140Z,11.07
2022-08-26T00:51:20.653Z,12.27
2022-08-26T00:56:42.258Z,12.93
2022-08-26T01:01:46.081Z,11.35
2022-08-26T01:06:54.491Z,13.43
2022-08-26T01:12:01.722Z,8.82
2022-08-26T01:17:07.197Z,10.15
2022-08-26T01:22:33.509Z,13.65
2022-08-26T01:27:37.581Z,10.38
2022-08-26T01:32:41.370Z,14.30
2022-08-26T01:37:45.661Z,12.00
2022-08-26T01:42:49.970Z,12.07
2022-08-26T01:47:56.899Z,10.45
2022-08-26T01:53:03.801Z,14.57
2022-08-26T01:58:14.709Z,18.02
2022-08-26T02:03:19.269Z,17.15
2022-08-26T02:08:36.745Z,13.10
2022-08-26T02:13:47.330Z,14.52
2022-08-26T02:18:53.349Z,12.60
2022-08-26T02:23:57.744Z,10.48
2022-08-26T02:29:06.080Z,16.25
2022-08-26T02:34:16.350Z,13.40
2022-08-26T02:39:22.247Z,11.80
2022-08-26T02:44:26.550Z,11.15
2022-08-26T02:49:31.233Z,19.05
2022-08-26T02:54:34.284Z,14.65
2022-08-26T02:59:39.969Z,16.40
2022-08-26T03:04:57.836Z,10.60
2022-08-26T03:10:08.438Z,13.90
2022-08-26T03:15:17.635Z,10.70
2022-08-26T03:20:21.390Z,14.52
2022-08-26T03:25:26.487Z,13.95
2022-08-26T03:30:45.053Z,16.23
2022-08-26T03:35:50.522Z,15.18
2022-08-26T03:40:56.313Z,15.15
2022-08-26T03:46:04.784Z,11.82
2022-08-26T03:51:18.262Z,12.40
2022-08-26T03:56:22.243Z,14.90
2022-08-26T04:01:25.585Z,14.35
2022-08-26T04:06:39.672Z,11.38
2022-08-26T04:11:45.138Z,16.40
2022-08-26T04:16:51.615Z,13.30
2022-08-26T04:21:55.226Z,13.45
2022-08-26T04:26:58.659Z,16.83
2022-08-26T04:32:03.854Z,15.80
2022-08-26T04:37:08.550Z,13.38
2022-08-26T04:42:14.157Z,16.42
2022-08-26T04:47:17.369Z,14.52
2022-08-26T04:52:22.717Z,16.23
2022-08-26T04:57:25.976Z,17.42
2022-08-26T05:02:29.284Z,18.60
2022-08-26T05:07:32.355Z,24.27
2022-08-26T05:12:36.722Z,18.10
2022-08-26T05:17:41.023Z,17.70
2022-08-26T05:22:44.930Z,16.60
2022-08-26T05:27:48.669Z,18.27
2022-08-26T05:32:55.202Z,18.00
2022-08-26T05:38:03.432Z,17.45
2022-08-26T05:43:11.232Z,17.70
2022-08-26T05:48:17.628Z,16.58
2022-08-26T05:53:26.017Z,19.83
2022-08-26T05:58:29.680Z,23.60
2022-08-26T06:03:36.546Z,15.18
2022-08-26T06:08:39.825Z,18.13
2022-08-26T06:13:43.021Z,18.10
2022-08-26T06:18:48.830Z,16.90
2022-08-26T06:24:16.213Z,16.65
2022-08-26T06:29:24.071Z,16.58
2022-08-26T06:34:30.292Z,19.95
2022-08-26T06:39:34.206Z,17.60
2022-08-26T06:44:37.810Z,16.33
2022-08-26T06:49:44.399Z,20.45
2022-08-26T06:54:47.776Z,23.35
2022-08-26T06:59:51.422Z,19.35
2022-08-26T07:04:56.853Z,20.60
2022-08-26T07:10:00.940Z,19.48
2022-08-26T07:15:05.173Z,18.73
2022-08-26T07:20:09.905Z,24.80
2022-08-26T07:25:15.726Z,16.83
2022-08-26T07:30:19.218Z,18.10
2022-08-26T07:35:23.662Z,17.25
2022-08-26T07:40:26.972Z,16.98
2022-08-26T07:45:30.630Z,17.98
2022-08-26T07:50:49.133Z,21.20
2022-08-26T07:55:53.803Z,19.13
2022-08-26T08:00:57.357Z,19.38
2022-08-26T08:06:02.010Z,18.52
2022-08-26T08:11:05.458Z,20.00
2022-08-26T08:16:12.736Z,19.98
2022-08-26T08:21:22.155Z,19.10
2022-08-26T08:26:27.684Z,14.77
2022-08-26T08:31:55.718Z,18.20
2022-08-26T08:36:58.504Z,17.92
2022-08-26T08:42:16.850Z,15.13
2022-08-26T08:47:36.704Z,13.95
2022-08-26T08:52:42.424Z,25.08
2022-08-26T08:58:07.893Z,14.00
2022-08-26T09:03:25.276Z,10.70
2022-08-26T09:08:33.498Z,8.70
2022-08-26T09:13:39.354Z,9.55
2022-08-26T09:19:11.901Z,9.65
2022-08-26T09:24:14.997Z,11.95
2022-08-26T09:29:27.503Z,10.60
2022-08-26T09:34:30.790Z,13.60
2022-08-26T09:39:38.945Z,14.75
2022-08-26T09:44:57.495Z,14.60
2022-08-26T09:50:12.703Z,8.98
2022-08-26T09:55:22.995Z,12.05
2022-08-26T10:00:34.462Z,8.48
2022-08-26T10:05:58.250Z,8.65
2022-08-26T10:11:05.257Z,10.23
2022-08-26T10:16:57.219Z,9.48
2022-08-26T10:22:08.349Z,11.00
2022-08-26T10:27:35.362Z,11.98
2022-08-26T10:32:42.361Z,15.80
2022-08-26T10:38:11.267Z,14.20
2022-08-26T10:43:25.706Z,15.20
2022-08-26T10:48:35.529Z,12.48
2022-08-26T10:53:56.634Z,18.27
2022-08-26T10:59:19.707Z,8.18
2022-08-26T11:04:56.449Z,15.02
2022-08-26T11:10:01.891Z,14.98
2022-08-26T11:15:12.074Z,18.40
2022-08-26T11:20:41.831Z,12.68
2022-08-26T11:25:57.583Z,13.57
2022-08-26T11:31:01.174Z,13.13
2022-08-26T11:36:11.488Z,13.45
2022-08-26T11:41:22.273Z,11.05
2022-08-26T11:46:37.071Z,11.40
2022-08-26T11:51:42.552Z,8.30
2022-08-26T11:56:52.614Z,11.35
2022-08-26T12:01:58.924Z,13.67
2022-08-26T12:07:10.608Z,9.18
2022-08-26T12:12:52.923Z,9.45
2022-08-26T12:18:34.779Z,9.63
2022-08-26T12:24:10.932Z,15.75
2022-08-26T12:49:24.869Z,12.02
2022-08-26T12:55:05.057Z,5.47
2022-08-26T13:06:43.325Z,9.88
2022-08-26T13:19:10.218Z,11.13
2022-08-26T13:32:01.928Z,12.35
2022-08-26T13:37:24.382Z,7.70
2022-08-26T13:49:44.436Z,13.68
2022-08-26T13:55:30.980Z,15.10
2022-08-26T14:02:10.720Z,6.57
2022-08-26T14:08:16.676Z,4.35
2022-08-26T14:13:59.112Z,5.75
2022-08-26T14:19:25.627Z,6.40
2022-08-26T14:24:41.199Z,5.88
2022-08-26T14:30:12.152Z,4.78
2022-08-26T14:35:39.909Z,5.05
2022-08-26T14:40:47.036Z,6.95
2022-08-26T14:45:50.055Z,6.93
2022-08-26T14:50:53.184Z,6.75
2022-08-26T14:55:56.325Z,9.25
2022-08-26T15:01:00.980Z,11.55
2022-08-26T15:06:08.159Z,10.48
2022-08-26T15:11:11.903Z,8.60
2022-08-26T15:16:15.455Z,10.02
2022-08-26T15:34:03.861Z,8.65
2022-08-26T15:52:17.192Z,12.52
2022-08-26T16:11:05.107Z,12.25
2022-08-26T16:17:23.145Z,13.37
2022-08-26T17:05:27.530Z,12.68
2022-08-26T17:28:56.049Z,13.77
2022-08-26T17:34:04.881Z,8.88
2022-08-26T17:39:08.094Z,10.85
2022-08-26T17:44:11.784Z,9.27
2022-08-26T17:49:15.270Z,11.27
2022-08-26T17:54:19.863Z,12.95
2022-08-26T17:59:22.928Z,9.50
2022-08-26T18:04:35.204Z,11.75
2022-08-26T18:09:38.303Z,12.57
2022-08-26T18:14:41.551Z,11.68
2022-08-26T18:19:47.749Z,15.02
2022-08-26T18:24:58.664Z,10.60
2022-08-26T18:30:04.883Z,12.15
2022-08-26T18:35:09.273Z,14.18
2022-08-26T18:40:15.002Z,11.50
2022-08-26T18:45:18.528Z,10.77
2022-08-26T18:50:21.980Z,16.10
2022-08-26T18:55:25.673Z,14.18
2022-08-26T19:00:28.842Z,13.70
2022-08-26T19:05:32.028Z,14.70
2022-08-26T19:18:10.817Z,13.43
2022-08-26T19:23:38.096Z,15.77
2022-08-26T19:34:41.706Z,12.82
2022-08-26T19:39:45.073Z,14.82
2022-08-26T19:45:25.107Z,11.52
2022-08-26T19:50:38.020Z,13.10
2022-08-26T19:55:43.845Z,18.60
2022-08-26T20:00:47.303Z,9.32
2022-08-26T20:05:50.399Z,12.77
2022-08-26T20:10:53.499Z,7.47
2022-08-26T20:15:56.580Z,5.85
2022-08-26T20:21:18.514Z,10.60
2022-08-26T20:26:23.599Z,10.35
2022-08-26T20:31:27.626Z,7.38
2022-08-26T20:36:32.147Z,9.45
2022-08-26T20:41:36.321Z,11.77
2022-08-26T20:46:41.255Z,7.30
2022-08-26T20:51:45.384Z,7.13
2022-08-26T20:56:48.725Z,9.23
2022-08-26T21:01:54.134Z,10.05
2022-08-26T21:06:57.205Z,12.90
2022-08-26T21:12:00.336Z,8.48
2022-08-26T21:17:04.688Z,11.63
2022-08-26T21:22:07.800Z,8.88
2022-08-26T21:27:11.119Z,8.43
2022-08-26T21:32:15.731Z,9.95
2022-08-26T21:37:19.115Z,13.15
2022-08-26T21:42:23.272Z,10.80
2022-08-26T21:47:26.704Z,10.95
2022-08-26T21:52:29.972Z,9.32
2022-08-26T21:57:34.485Z,8.88
2022-08-26T22:02:38.092Z,8.43
2022-08-26T22:07:41.495Z,9.32
2022-08-26T22:12:44.775Z,15.60
2022-08-26T22:17:47.924Z,7.53
2022-08-26T22:22:51.213Z,9.63
2022-08-26T22:27:56.905Z,7.93
2022-08-26T22:33:00.211Z,10.70
2022-08-26T22:38:03.369Z,9.52
2022-08-26T22:43:06.704Z,6.85
2022-08-26T22:48:11.423Z,6.75
2022-08-26T22:53:16.397Z,8.60
2022-08-26T22:58:20.375Z,10.15
2022-08-26T23:03:26.539Z,11.50
2022-08-26T23:08:29.849Z,12.63
2022-08-26T23:13:33.148Z,12.57
2022-08-26T23:18:37.035Z,14.10
2022-08-26T23:23:42.950Z,15.57
2022-08-26T23:28:48.928Z,9.43
2022-08-26T23:34:11.147Z,16.08
2022-08-26T23:39:16.013Z,11.13
2022-08-26T23:44:20.475Z,10.55
2022-08-26T23:49:24.863Z,13.50
2022-08-26T23:54:28.513Z,7.97
2022-08-26T23:59:33.354Z,11.38
